Time;durP1;ratioP1;P1;durP2;ratioP2;P2;SDS_P1;SDS_P2;PMS_P1;PMS_P2;Temp;Humidity;BMP_temperature;BMP_pressure;BME280_temperature;BME280_humidity;BME280_pressure;Samples;Min_cycle;Max_cycle;Signal;HPM_P1;HPM_P2
2021/08/06 00:01:00;;;;;;;4.90;2.88;;;16.10;99.90;;;14.23;100.00;100406.25;3589566;39;20296;-83
2021/08/06 00:03:29;;;;;;;3.25;2.95;;;16.10;99.90;;;14.25;100.00;100405.06;3589618;39;20251;-82
2021/08/06 00:05:56;;;;;;;2.92;2.55;;;16.10;99.90;;;14.25;100.00;100378.16;3588339;39;20269;-82
2021/08/06 00:08:23;;;;;;;3.35;2.65;;;16.10;99.90;;;14.26;100.00;100347.53;3587930;39;20762;-83
2021/08/06 00:10:51;;;;;;;3.70;3.15;;;16.10;99.90;;;14.26;100.00;100330.56;3589320;39;20560;-81
2021/08/06 00:13:19;;;;;;;3.45;2.63;;;16.30;99.90;;;14.16;100.00;100322.72;3607186;39;20287;-83
2021/08/06 00:15:46;;;;;;;4.72;2.60;;;16.30;99.90;;;14.18;100.00;100346.78;3588654;39;20503;-82
2021/08/06 00:18:14;;;;;;;4.32;2.60;;;16.50;99.90;;;14.28;100.00;100347.34;3589040;39;20332;-83
2021/08/06 00:20:41;;;;;;;3.08;2.63;;;16.10;99.90;;;14.29;100.00;100332.88;3595563;39;20544;-81
2021/08/06 00:23:08;;;;;;;3.47;2.78;;;16.90;99.90;;;14.27;100.00;100295.38;3598275;39;20941;-81
2021/08/06 00:25:35;;;;;;;2.75;2.55;;;16.10;99.90;;;14.31;100.00;100260.88;3598844;39;20265;-81
2021/08/06 00:28:03;;;;;;;5.38;3.35;;;16.10;99.90;;;14.31;100.00;100242.88;3597655;39;20735;-82
2021/08/06 00:30:31;;;;;;;4.13;3.25;;;16.20;99.90;;;14.31;100.00;100226.72;3598874;39;20259;-82
2021/08/06 00:32:58;;;;;;;3.70;3.30;;;16.20;99.90;;;14.27;100.00;100213.81;3579566;39;20489;-81
2021/08/06 00:35:33;;;;;;;3.30;2.83;;;16.20;99.90;;;14.30;100.00;100243.88;3587842;39;20251;-82
2021/08/06 00:38:01;;;;;;;4.82;3.22;;;16.80;99.90;;;14.30;100.00;100233.13;3587131;39;21037;-82
2021/08/06 00:40:28;;;;;;;3.58;2.42;;;16.20;99.90;;;14.28;100.00;100202.03;3589352;39;20317;-82
2021/08/06 00:42:58;;;;;;;3.13;2.45;;;16.60;99.90;;;14.32;100.00;100206.03;3588461;39;20646;-82
2021/08/06 00:45:35;;;;;;;3.03;2.65;;;16.20;99.90;;;14.30;100.00;100203.53;3586850;39;20696;-82
2021/08/06 00:48:06;;;;;;;4.10;2.95;;;16.20;99.90;;;14.22;100.00;100211.66;3578285;39;20377;-81
2021/08/06 00:50:35;;;;;;;3.75;2.92;;;16.20;99.90;;;14.21;100.00;100201.09;3581898;39;20595;-82
2021/08/06 00:53:05;;;;;;;3.97;3.25;;;16.20;99.90;;;14.15;100.00;100210.72;3587699;39;20460;-81
2021/08/06 00:55:33;;;;;;;4.38;2.95;;;16.10;99.90;;;14.15;100.00;100205.34;3600292;39;20282;-83
2021/08/06 00:58:21;;;;;;;3.05;2.75;;;16.10;99.90;;;14.17;100.00;100197.94;3590782;39;20717;-83
2021/08/06 01:00:51;;;;;;;4.82;3.08;;;16.10;99.90;;;14.18;100.00;100205.00;3596119;39;20265;-82
2021/08/06 01:03:33;;;;;;;3.08;2.60;;;16.10;99.90;;;14.18;100.00;100214.91;3587475;39;20371;-83
2021/08/06 01:06:12;;;;;;;3.10;2.50;;;15.90;99.90;;;14.18;100.00;100212.22;3586693;39;20363;-83
2021/08/06 01:08:59;;;;;;;3.13;2.75;;;16.10;99.90;;;14.13;100.00;100218.16;3591387;39;20336;-81
2021/08/06 01:11:34;;;;;;;5.03;3.30;;;16.10;99.90;;;14.18;100.00;100212.22;3596350;39;20594;-81
2021/08/06 01:14:10;;;;;;;3.00;2.65;;;17.00;99.90;;;14.12;100.00;100212.94;3596289;39;20274;-82
2021/08/06 01:16:40;;;;;;;8.93;3.17;;;16.10;99.90;;;14.08;100.00;100223.25;3586192;39;20397;-81
2021/08/06 01:19:29;;;;;;;5.25;3.25;;;16.00;99.90;;;14.05;100.00;100228.16;3578566;39;20819;-81
2021/08/06 01:22:11;;;;;;;3.47;2.90;;;16.00;99.90;;;14.01;100.00;100244.66;3579213;39;20261;-81
2021/08/06 01:24:51;;;;;;;3.58;2.90;;;16.00;99.90;;;14.00;100.00;100250.22;3586902;39;20462;-82
2021/08/06 01:27:23;;;;;;;3.95;3.13;;;16.00;99.90;;;14.02;100.00;100248.19;3586090;39;20259;-81
2021/08/06 01:29:53;;;;;;;2.85;2.55;;;16.50;99.90;;;13.99;100.00;100235.91;3585722;39;20247;-83
2021/08/06 01:32:21;;;;;;;3.50;3.10;;;15.90;99.90;;;13.95;100.00;100231.94;3586735;39;20289;-81
2021/08/06 01:34:49;;;;;;;4.03;2.45;;;15.90;99.90;;;13.98;100.00;100245.00;3578026;39;20444;-82
2021/08/06 01:37:18;;;;;;;4.75;3.13;;;15.90;99.90;;;13.92;100.00;100250.28;3585574;39;20267;-80
2021/08/06 01:39:47;;;;;;;4.65;3.70;;;15.90;99.90;;;13.89;100.00;100275.69;3598757;39;20307;-82
2021/08/06 01:42:30;;;;;;;4.03;2.85;;;15.80;99.90;;;13.87;100.00;100301.91;3602060;39;20269;-83
2021/08/06 01:45:04;;;;;;;4.57;3.42;;;16.90;99.90;;;13.82;100.00;100301.63;3596877;39;20247;-83
2021/08/06 01:47:42;;;;;;;6.15;3.90;;;15.80;99.90;;;13.86;100.00;100311.00;3588059;39;20745;-82
2021/08/06 01:50:25;;;;;;;3.97;3.40;;;15.70;99.90;;;13.85;100.00;100290.50;3598045;39;20708;-83
2021/08/06 01:53:00;;;;;;;3.35;3.05;;;15.70;99.90;;;13.81;100.00;100302.66;3596806;39;20772;-84
2021/08/06 01:55:40;;;;;;;2.90;2.70;;;15.70;99.90;;;13.79;100.00;100455.28;3597162;39;20726;-82
2021/08/06 01:58:13;;;;;;;5.50;3.83;;;16.60;99.90;;;13.77;100.00;100335.44;3598010;39;20268;-82
2021/08/06 02:00:43;;;;;;;3.45;2.95;;;15.60;99.90;;;13.78;100.00;100323.69;3587896;39;20261;-83
2021/08/06 02:03:14;;;;;;;4.50;2.80;;;15.60;99.90;;;13.78;100.00;100304.84;3596453;39;20732;-83
2021/08/06 02:05:42;;;;;;;5.38;3.50;;;15.60;99.90;;;13.82;100.00;100284.66;3586192;39;20292;-80
2021/08/06 02:08:17;;;;;;;4.97;3.33;;;15.60;99.90;;;13.80;100.00;100243.66;3586027;39;20258;-81
2021/08/06 02:10:48;;;;;;;3.78;3.38;;;15.60;99.90;;;13.82;100.00;100217.44;3595168;39;20801;-81
2021/08/06 02:13:20;;;;;;;3.88;3.47;;;15.90;99.90;;;13.83;100.00;100189.53;3596791;39;20341;-81
2021/08/06 02:15:49;;;;;;;4.82;3.38;;;15.60;99.90;;;13.84;100.00;100162.44;3591242;39;20379;-83
2021/08/06 02:18:22;;;;;;;4.05;3.33;;;15.60;99.90;;;13.86;100.00;100133.50;3587030;39;20668;-83
2021/08/06 02:21:08;;;;;;;5.05;4.05;;;15.60;99.90;;;13.81;100.00;100110.88;3590087;39;20256;-81
2021/08/06 02:23:43;;;;;;;4.68;3.33;;;15.60;99.90;;;13.83;100.00;100055.06;3605543;39;20406;-81
2021/08/06 02:26:13;;;;;;;3.70;3.40;;;16.20;99.90;;;13.79;100.00;100041.13;3598272;39;20254;-83
2021/08/06 02:28:45;;;;;;;3.60;3.30;;;15.90;99.90;;;13.81;100.00;99861.63;3594841;39;20552;-81
2021/08/06 02:31:13;;;;;;;9.38;3.42;;;15.60;99.90;;;13.76;100.00;99826.38;3587855;39;20337;-81
2021/08/06 02:33:43;;;;;;;4.43;3.65;;;15.60;99.90;;;13.78;100.00;99820.81;3587324;39;20319;-80
2021/08/06 02:36:10;;;;;;;3.65;3.22;;;15.60;99.90;;;13.79;100.00;99804.50;3579821;39;20293;-81
2021/08/06 02:38:38;;;;;;;5.85;3.88;;;16.50;99.90;;;13.78;100.00;99793.91;3591040;39;20644;-82
2021/08/06 02:41:06;;;;;;;6.22;3.20;;;15.60;99.90;;;13.78;100.00;99769.72;3598523;39;20628;-82
2021/08/06 02:43:33;;;;;;;4.80;3.75;;;15.60;99.90;;;13.82;100.00;100066.81;3596065;39;20255;-82
2021/08/06 02:46:01;;;;;;;5.88;3.88;;;15.60;99.90;;;13.87;100.00;100026.75;3594843;39;20297;-82
2021/08/06 02:48:28;;;;;;;7.72;3.90;;;15.60;99.90;;;13.89;100.00;100024.72;3599158;39;20251;-81
2021/08/06 02:50:55;;;;;;;4.28;3.70;;;15.60;99.90;;;13.84;100.00;100022.59;3606875;39;20227;-82
2021/08/06 02:53:22;;;;;;;3.95;3.53;;;15.60;99.90;;;13.84;100.00;100029.81;3596895;39;20247;-82
2021/08/06 02:55:50;;;;;;;4.03;3.63;;;15.60;99.90;;;13.83;100.00;100037.06;3597372;39;20526;-81
2021/08/06 02:58:17;;;;;;;4.13;3.13;;;15.60;99.90;;;13.80;100.00;100007.84;3599668;39;20338;-83
2021/08/06 03:00:46;;;;;;;4.18;3.38;;;15.60;99.90;;;13.82;100.00;100003.13;3588977;39;20434;-82
2021/08/06 03:03:16;;;;;;;5.20;3.95;;;15.60;99.90;;;13.86;100.00;99990.09;3589156;39;20499;-83
2021/08/06 03:05:43;;;;;;;3.25;2.83;;;16.70;99.90;;;13.80;100.00;99945.16;3588563;39;20631;-82
2021/08/06 03:08:12;;;;;;;5.38;3.88;;;15.60;99.90;;;13.83;100.00;99951.00;3577144;39;20286;-81
2021/08/06 03:10:40;;;;;;;5.68;4.15;;;15.60;99.90;;;13.82;100.00;99984.28;3586062;39;20331;-81
2021/08/06 03:13:07;;;;;;;5.30;4.40;;;15.60;99.90;;;13.82;100.00;99980.78;3581027;39;20353;-83
2021/08/06 03:15:35;;;;;;;3.92;3.58;;;15.60;99.90;;;13.83;100.00;99999.41;3588556;39;20409;-82
2021/08/06 03:18:03;;;;;;;5.03;4.45;;;15.60;99.90;;;13.84;100.00;99993.00;3594803;39;20795;-81
2021/08/06 03:20:31;;;;;;;4.88;4.20;;;15.60;99.90;;;13.86;100.00;99982.88;3576945;39;20792;-80
2021/08/06 03:23:03;;;;;;;5.22;4.20;;;15.60;99.90;;;13.79;100.00;99978.44;3587313;39;20618;-82
2021/08/06 03:25:30;;;;;;;4.35;3.95;;;15.60;99.90;;;13.76;100.00;100005.69;3596807;39;20828;-81
2021/08/06 03:27:59;;;;;;;4.95;4.13;;;15.50;99.90;;;13.74;100.00;100031.94;3594629;39;20396;-80
2021/08/06 03:30:29;;;;;;;5.30;3.92;;;15.50;99.90;;;13.77;100.00;100047.69;3589003;39;20742;-80
2021/08/06 03:32:58;;;;;;;9.27;4.32;;;15.90;99.90;;;13.81;100.00;100046.31;3598283;39;20247;-80
2021/08/06 03:35:26;;;;;;;4.88;4.18;;;13.60;99.90;;;13.80;100.00;99999.78;3583035;39;20373;-81
2021/08/06 03:37:54;;;;;;;5.05;4.38;;;15.40;99.90;;;13.80;100.00;100005.16;3579485;39;20425;-80
2021/08/06 03:40:22;;;;;;;5.65;4.57;;;15.40;99.90;;;13.74;100.00;100026.56;3585282;39;20252;-81
2021/08/06 03:42:49;;;;;;;6.23;4.80;;;15.40;99.90;;;13.69;100.00;100027.13;3578456;39;20256;-82
2021/08/06 03:45:16;;;;;;;5.43;4.93;;;16.10;99.90;;;13.70;100.00;100020.72;3586717;39;20256;-82
2021/08/06 03:47:43;;;;;;;7.70;4.60;;;15.30;99.90;;;13.69;100.00;99580.81;3587109;39;20358;-80
2021/08/06 03:50:11;;;;;;;6.13;4.97;;;15.30;99.90;;;13.58;100.00;99675.44;3595948;39;20803;-83
2021/08/06 03:52:39;;;;;;;6.80;4.83;;;15.20;99.90;;;13.53;100.00;99798.81;3573947;39;20275;-82
2021/08/06 03:55:09;;;;;;;6.10;5.03;;;15.20;99.90;;;13.54;100.00;99911.53;3584819;39;20692;-82
2021/08/06 03:57:49;;;;;;;6.28;3.72;;;15.20;99.90;;;13.48;100.00;99938.28;3577120;39;20254;-80
2021/08/06 04:00:18;;;;;;;6.33;4.40;;;15.10;99.90;;;13.47;100.00;99940.19;3577857;39;20432;-82
2021/08/06 04:02:47;;;;;;;6.37;4.90;;;15.20;99.90;;;13.40;100.00;99939.22;3576223;39;20308;-82
2021/08/06 04:05:15;;;;;;;5.03;4.50;;;15.10;99.90;;;13.38;100.00;99954.69;3590684;39;21105;-81
2021/08/06 04:07:43;;;;;;;4.93;3.88;;;15.10;99.90;;;13.35;100.00;99975.75;3584681;39;20696;-81
2021/08/06 04:10:14;;;;;;;10.05;4.90;;;15.10;99.90;;;13.31;100.00;99986.03;3591040;39;20767;-82
2021/08/06 04:12:41;;;;;;;7.33;5.27;;;15.00;99.90;;;13.27;100.00;99990.09;3596813;39;20763;-85
2021/08/06 04:15:09;;;;;;;5.75;4.32;;;15.00;99.90;;;13.25;100.00;100011.75;3602745;39;20247;-81
2021/08/06 04:17:37;;;;;;;5.65;4.50;;;14.90;99.90;;;13.25;100.00;100003.69;3589968;39;20516;-83
2021/08/06 04:20:05;;;;;;;5.75;4.85;;;15.00;99.90;;;13.25;100.00;100029.72;3595069;39;21117;-83
2021/08/06 04:22:32;;;;;;;6.78;5.03;;;14.90;99.90;;;13.28;100.00;100013.25;3596805;39;20259;-82
2021/08/06 04:25:00;;;;;;;4.88;4.30;;;14.90;99.90;;;13.30;100.00;100009.38;3596706;39;20619;-84
2021/08/06 04:27:28;;;;;;;5.60;4.18;;;14.90;99.90;;;13.30;100.00;99982.50;3599655;39;20762;-81
2021/08/06 04:29:55;;;;;;;8.60;5.13;;;15.00;99.90;;;13.34;100.00;99987.53;3598421;39;20433;-81
2021/08/06 04:32:22;;;;;;;6.20;3.90;;;15.00;99.90;;;13.34;100.00;99968.72;3598246;39;20261;-82
2021/08/06 04:34:49;;;;;;;5.78;5.18;;;15.00;99.90;;;13.42;100.00;99944.44;3599612;39;20649;-83
2021/08/06 04:37:16;;;;;;;5.47;4.53;;;15.00;99.90;;;13.45;100.00;99914.50;3598353;39;20637;-81
2021/08/06 04:39:43;;;;;;;4.35;3.63;;;15.10;99.90;;;13.41;100.00;99879.09;3596869;39;20571;-83
2021/08/06 04:42:10;;;;;;;8.48;5.05;;;16.00;99.90;;;13.42;100.00;99842.31;3597308;39;20734;-82
2021/08/06 04:44:39;;;;;;;5.10;4.30;;;15.20;99.90;;;13.44;100.00;99821.44;3596484;39;20585;-83
2021/08/06 04:47:06;;;;;;;5.20;4.47;;;16.40;99.90;;;13.43;100.00;99756.13;3593776;39;20341;-82
2021/08/06 04:49:34;;;;;;;5.50;4.72;;;15.20;99.90;;;13.43;100.00;99745.38;3580074;39;20255;-82
2021/08/06 04:52:02;;;;;;;5.47;4.03;;;15.20;99.90;;;13.55;100.00;99725.03;3588518;39;20337;-83
2021/08/06 04:54:30;;;;;;;5.68;4.75;;;15.20;99.90;;;13.61;100.00;99680.41;3591069;39;20267;-80
2021/08/06 04:56:57;;;;;;;7.43;4.97;;;15.30;99.90;;;13.62;100.00;99650.66;3604040;39;20699;-82
2021/08/06 04:59:24;;;;;;;6.88;4.50;;;15.30;99.90;;;13.61;100.00;99610.53;3594403;39;20315;-82
2021/08/06 05:01:52;;;;;;;6.72;4.93;;;15.40;99.90;;;13.70;100.00;99593.25;3588183;39;21024;-82
2021/08/06 05:04:19;;;;;;;5.43;4.25;;;15.40;99.90;;;13.70;100.00;99544.84;3585887;39;20247;-82
2021/08/06 05:06:46;;;;;;;5.30;4.30;;;16.50;99.90;;;13.74;100.00;99521.06;3591460;39;20503;-83
2021/08/06 05:09:13;;;;;;;5.55;4.25;;;15.50;99.90;;;13.74;100.00;99476.19;3580252;39;20280;-82
2021/08/06 05:11:41;;;;;;;4.32;3.92;;;15.50;99.90;;;13.80;100.00;99458.47;3587347;39;21325;-82
2021/08/06 05:14:08;;;;;;;4.63;3.70;;;15.60;99.90;;;13.90;100.00;99440.09;3591887;39;20477;-83
2021/08/06 05:16:36;;;;;;;5.85;4.82;;;16.20;99.90;;;13.95;100.00;99408.06;3598847;39;20722;-83
2021/08/06 05:19:04;;;;;;;5.43;4.32;;;15.60;99.90;;;13.94;100.00;99401.84;3596680;39;20254;-83
2021/08/06 05:21:31;;;;;;;5.07;4.35;;;15.70;99.90;;;13.89;100.00;99390.84;3582753;39;20251;-83
2021/08/06 05:23:58;;;;;;;4.78;4.22;;;15.70;99.90;;;13.86;100.00;99390.41;3587406;39;20347;-80
2021/08/06 05:26:26;;;;;;;6.32;4.57;;;16.10;99.90;;;13.91;100.00;99374.53;3588978;39;20258;-82
2021/08/06 05:28:53;;;;;;;5.20;3.80;;;16.90;99.90;;;13.96;100.00;99356.75;3587729;39;20985;-83
2021/08/06 05:31:20;;;;;;;5.75;3.90;;;16.80;99.90;;;14.05;100.00;99345.81;3596289;39;20610;-84
2021/08/06 05:33:48;;;;;;;4.63;4.18;;;15.90;99.90;;;14.13;100.00;99346.44;3590035;39;20334;-81
2021/08/06 05:36:16;;;;;;;6.30;4.65;;;16.00;99.90;;;14.26;100.00;99326.81;3590686;39;20736;-83
2021/08/06 05:38:43;;;;;;;5.05;4.38;;;16.00;99.90;;;14.09;100.00;99296.78;3583114;39;20352;-81
2021/08/06 05:41:11;;;;;;;4.60;3.95;;;16.70;99.90;;;14.12;100.00;99264.06;3597324;39;20359;-81
2021/08/06 05:43:38;;;;;;;3.80;3.40;;;16.10;99.90;;;14.30;100.00;99250.84;3598204;39;20332;-81
2021/08/06 05:46:05;;;;;;;4.28;3.75;;;17.00;99.90;;;14.22;100.00;99216.06;3589781;39;20254;-83
2021/08/06 05:48:34;;;;;;;7.00;4.05;;;16.10;99.90;;;14.23;100.00;99227.66;3588108;39;21131;-83
2021/08/06 05:51:01;;;;;;;4.50;3.75;;;16.20;99.90;;;14.15;100.00;99226.00;3589055;39;20266;-82
2021/08/06 05:53:29;;;;;;;4.35;3.92;;;17.10;99.90;;;14.24;100.00;99227.44;3600438;39;20270;-81
2021/08/06 05:56:00;;;;;;;4.18;3.78;;;16.30;99.90;;;14.26;100.00;99211.09;3587600;39;20777;-82
2021/08/06 05:58:30;;;;;;;3.83;3.45;;;16.30;99.90;;;14.16;100.00;99224.16;3587053;39;20300;-82
2021/08/06 06:00:58;;;;;;;4.07;3.10;;;17.50;99.90;;;14.18;100.00;99204.09;3588480;39;20568;-82
2021/08/06 06:03:33;;;;;;;6.72;4.03;;;16.40;99.90;;;14.22;100.00;99199.91;3587218;39;21029;-81
2021/08/06 06:06:16;;;;;;;3.78;3.30;;;16.40;99.90;;;14.32;100.00;99186.91;3597856;39;20971;-82
2021/08/06 06:08:44;;;;;;;4.18;3.03;;;16.40;99.90;;;14.63;100.00;99188.09;3586108;39;20744;-82
2021/08/06 06:11:12;;;;;;;5.57;3.75;;;16.50;99.90;;;14.50;100.00;99156.66;3589221;39;20244;-82
2021/08/06 06:13:38;;;;;;;7.85;4.40;;;16.50;99.90;;;14.65;100.00;99162.63;3593804;39;20780;-83
2021/08/06 06:16:06;;;;;;;4.95;4.28;;;17.30;99.90;;;14.92;100.00;99143.69;3597638;39;20589;-82
2021/08/06 06:18:33;;;;;;;5.00;3.83;;;16.70;99.90;;;14.67;100.00;99114.78;3596692;39;20340;-84
2021/08/06 06:21:01;;;;;;;6.00;3.72;;;16.80;99.90;;;14.58;100.00;99118.75;3596200;39;20618;-85
2021/08/06 06:23:28;;;;;;;7.47;3.80;;;16.80;99.90;;;14.50;100.00;99118.16;3585244;39;20612;-82
2021/08/06 06:25:57;;;;;;;6.20;3.42;;;16.90;99.90;;;14.69;100.00;99128.03;3579318;39;20686;-81
2021/08/06 06:28:27;;;;;;;6.07;4.63;;;17.00;99.90;;;14.72;100.00;99122.22;3597230;39;20753;-83
2021/08/06 06:30:57;;;;;;;4.43;4.03;;;17.10;99.90;;;14.81;100.00;99133.59;3596310;39;20284;-81
2021/08/06 06:33:25;;;;;;;6.00;4.00;;;17.10;99.90;;;14.86;100.00;99144.53;3586253;39;20331;-82
2021/08/06 06:35:52;;;;;;;4.13;3.47;;;17.10;99.90;;;15.07;100.00;99146.94;3581677;39;20328;-83
2021/08/06 06:38:20;;;;;;;4.55;3.65;;;17.10;99.90;;;14.89;100.00;99136.03;3587157;39;20256;-82
2021/08/06 06:40:47;;;;;;;4.90;3.83;;;17.20;99.90;;;15.03;100.00;99133.06;3594024;39;20374;-81
2021/08/06 06:43:36;;;;;;;3.55;3.15;;;16.50;99.90;;;14.96;100.00;99126.88;3580450;39;20266;-82
2021/08/06 06:46:03;;;;;;;6.88;3.80;;;17.30;99.90;;;14.92;100.00;99176.00;3598395;39;20254;-83
2021/08/06 06:48:32;;;;;;;5.90;3.90;;;17.20;99.90;;;15.04;100.00;99172.44;3587412;39;20582;-82
2021/08/06 06:51:00;;;;;;;4.60;3.15;;;17.40;99.90;;;15.34;100.00;99178.06;3606076;39;20271;-81
2021/08/06 06:53:31;;;;;;;4.63;3.72;;;17.40;99.90;;;15.70;100.00;99211.72;3600946;39;20305;-82
2021/08/06 06:55:58;;;;;;;4.97;3.70;;;17.30;99.90;;;15.94;100.00;99164.25;3591255;39;21001;-85
2021/08/06 06:58:25;;;;;;;3.15;2.85;;;17.80;99.90;;;16.01;100.00;99138.84;3581496;39;20554;-82
2021/08/06 07:00:54;;;;;;;4.40;3.85;;;17.80;99.90;;;16.12;100.00;99094.94;3581639;39;20289;-81
2021/08/06 07:03:22;;;;;;;3.60;2.90;;;17.90;99.90;;;16.37;100.00;99073.31;3595838;39;20382;-83
2021/08/06 07:05:49;;;;;;;4.00;2.67;;;18.10;99.90;;;16.73;100.00;99036.53;3586333;39;20841;-83
2021/08/06 07:08:17;;;;;;;3.80;2.70;;;18.40;99.90;;;16.68;100.00;98979.72;3587259;39;20295;-83
2021/08/06 07:10:44;;;;;;;2.40;2.20;;;18.30;99.90;;;16.72;100.00;98924.16;3592229;39;21524;-82
2021/08/06 07:13:11;;;;;;;2.08;1.92;;;18.50;99.90;;;16.70;100.00;98913.56;3588299;39;20286;-82
2021/08/06 07:15:38;;;;;;;6.47;2.42;;;18.60;99.90;;;16.82;100.00;98892.81;3587150;39;20353;-83
2021/08/06 07:18:07;;;;;;;2.17;1.98;;;19.50;99.90;;;17.00;100.00;98851.38;3586654;39;20598;-83
2021/08/06 07:20:34;;;;;;;5.22;2.25;;;18.80;99.90;;;16.79;100.00;98825.78;3588918;39;20251;-82
2021/08/06 07:23:01;;;;;;;2.38;2.05;;;19.50;99.90;;;16.70;100.00;98818.22;3589519;39;20274;-82
2021/08/06 07:25:28;;;;;;;3.47;1.90;;;19.00;99.90;;;16.56;100.00;98796.00;3597206;39;20367;-85
2021/08/06 07:28:00;;;;;;;2.00;1.83;;;19.10;99.90;;;16.80;100.00;98769.88;3596842;39;20636;-84
2021/08/06 07:30:27;;;;;;;2.63;2.00;;;19.10;99.90;;;16.78;100.00;98769.28;3589000;39;20757;-82
2021/08/06 07:32:54;;;;;;;1.33;1.23;;;20.30;99.90;;;17.12;100.00;98781.94;3611548;39;20294;-83
2021/08/06 07:35:28;;;;;;;2.40;1.88;;;19.30;99.90;;;17.32;100.00;98765.34;3617206;39;20460;-82
2021/08/06 07:37:55;;;;;;;1.88;1.50;;;19.40;99.90;;;17.36;100.00;98733.25;3599139;39;20359;-82
2021/08/06 07:40:22;;;;;;;2.95;1.70;;;19.50;99.90;;;17.35;100.00;98764.03;3597577;39;20258;-82
2021/08/06 07:42:54;;;;;;;1.33;1.15;;;19.70;99.90;;;17.67;100.00;98743.66;3586657;39;20707;-85
2021/08/06 07:45:23;;;;;;;1.95;1.58;;;19.70;99.90;;;17.45;100.00;98705.56;3578468;39;20327;-82
2021/08/06 07:47:51;;;;;;;1.27;0.88;;;20.10;99.90;;;17.21;100.00;98675.09;3580979;39;20372;-84
2021/08/06 07:50:20;;;;;;;1.50;1.23;;;20.10;99.90;;;17.41;100.00;98611.69;3596999;39;20955;-81
2021/08/06 07:52:49;;;;;;;2.50;1.30;;;20.10;99.90;;;17.66;100.00;98479.66;3591888;39;20771;-81
2021/08/06 07:55:16;;;;;;;1.83;1.50;;;20.30;99.90;;;17.68;100.00;98371.22;3588281;39;20275;-83
2021/08/06 07:57:45;;;;;;;1.17;1.08;;;21.30;99.90;;;18.13;100.00;99510.59;3587445;39;20263;-82
2021/08/06 08:00:13;;;;;;;2.13;1.20;;;20.80;99.90;;;18.06;100.00;99572.91;3595839;39;20293;-82
2021/08/06 08:02:43;;;;;;;1.63;0.93;;;20.60;99.90;;;17.79;100.00;99631.06;3588826;39;20277;-82
2021/08/06 08:05:15;;;;;;;1.27;1.00;;;20.80;99.90;;;17.88;100.00;99637.84;3590039;39;20251;-81
2021/08/06 08:07:43;;;;;;;1.35;1.15;;;20.80;99.90;;;17.85;100.00;99647.22;3585642;39;20263;-82
2021/08/06 08:10:13;;;;;;;1.20;1.10;;;20.90;99.90;;;17.87;100.00;99650.56;3588684;39;20506;-82
2021/08/06 08:12:40;;;;;;;1.10;0.98;;;21.30;99.90;;;18.20;100.00;99654.84;3594142;39;20247;-82
2021/08/06 08:15:09;;;;;;;2.92;1.20;;;21.20;99.90;;;18.07;100.00;99652.25;3586293;39;20253;-84
2021/08/06 08:17:36;;;;;;;1.35;1.25;;;21.20;99.90;;;17.93;100.00;99616.34;3589163;39;20251;-83
2021/08/06 08:20:05;;;;;;;1.08;1.02;;;21.30;99.90;;;18.46;100.00;99643.75;3599379;39;20367;-82
2021/08/06 08:22:32;;;;;;;1.85;1.20;;;21.40;99.90;;;18.33;100.00;99718.88;3584233;39;20691;-82
2021/08/06 08:24:59;;;;;;;1.10;1.00;;;21.50;99.90;;;17.95;100.00;99803.72;3578888;39;20611;-83
2021/08/06 08:27:29;;;;;;;1.08;0.98;;;21.60;98.80;;;17.99;100.00;99828.50;3587209;39;20391;-83
2021/08/06 08:29:57;;;;;;;1.95;1.25;;;22.50;99.50;;;18.43;100.00;99817.53;3586282;39;20605;-81
2021/08/06 08:32:24;;;;;;;1.65;1.55;;;21.70;99.90;;;18.22;100.00;99824.16;3586829;39;20511;-81
2021/08/06 08:34:51;;;;;;;1.35;1.17;;;22.80;99.50;;;18.28;100.00;99817.88;3579744;39;20706;-83
2021/08/06 08:37:19;;;;;;;1.40;1.10;;;21.80;98.50;;;18.37;100.00;99823.84;3580414;39;20340;-82
2021/08/06 08:39:47;;;;;;;1.98;1.52;;;22.30;99.00;;;18.75;100.00;99817.53;3589280;39;20396;-85
2021/08/06 08:42:16;;;;;;;2.17;1.65;;;21.90;99.30;;;18.64;100.00;99859.75;3586573;39;20300;-83
2021/08/06 08:44:45;;;;;;;2.10;1.23;;;22.70;99.00;;;18.28;100.00;99863.09;3594319;39;20379;-83
2021/08/06 08:47:13;;;;;;;1.70;1.60;;;22.00;97.70;;;18.39;100.00;99861.56;3595979;39;20259;-82
2021/08/06 08:49:41;;;;;;;3.05;1.67;;;22.60;98.20;;;18.37;100.00;99877.19;3590734;39;20270;-83
2021/08/06 08:52:09;;;;;;;1.95;1.25;;;22.60;97.70;;;18.38;100.00;99878.88;3584093;39;20665;-83
2021/08/06 08:54:38;;;;;;;1.30;1.20;;;22.20;97.60;;;18.49;100.00;99873.56;3609762;39;20274;-82
2021/08/06 08:57:05;;;;;;;1.52;1.42;;;22.20;97.50;;;18.47;100.00;99866.69;3596764;39;20319;-80
2021/08/06 08:59:33;;;;;;;1.73;1.38;;;22.20;96.90;;;18.77;100.00;99861.50;3588133;39;20247;-80
2021/08/06 09:02:01;;;;;;;2.28;1.67;;;22.50;97.40;;;19.18;100.00;99867.16;3587060;39;20699;-82
2021/08/06 09:04:30;;;;;;;1.88;1.13;;;23.20;97.30;;;19.18;100.00;99878.00;3593142;39;20300;-84
2021/08/06 09:06:59;;;;;;;1.77;1.50;;;22.50;96.30;;;19.26;100.00;99882.31;3593779;39;20957;-81
2021/08/06 09:09:40;;;;;;;1.50;1.23;;;23.10;95.80;;;19.44;100.00;99909.44;3591936;39;20275;-84
2021/08/06 09:12:21;;;;;;;1.15;1.05;;;22.80;94.80;;;19.45;100.00;100060.34;3596377;39;21056;-81
2021/08/06 09:14:51;;;;;;;0.90;0.82;;;23.30;93.20;;;19.49;100.00;100105.03;3593007;39;20810;-81
2021/08/06 09:17:20;;;;;;;1.65;1.27;;;23.40;91.60;;;20.35;100.00;100337.91;3594195;39;21133;-82
2021/08/06 09:19:58;;;;;;;1.20;1.10;;;23.40;92.10;;;20.87;100.00;100472.66;3597597;39;20740;-83
2021/08/06 09:22:30;;;;;;;1.30;1.20;;;24.70;91.50;;;19.99;100.00;100737.84;3591754;39;20670;-81
2021/08/06 09:25:05;;;;;;;1.10;0.90;;;24.30;85.70;;;20.74;100.00;100741.94;3599474;39;20346;-81
2021/08/06 09:27:35;;;;;;;1.27;1.10;;;24.10;82.40;;;20.43;100.00;100734.47;3586874;39;20445;-81
2021/08/06 09:30:07;;;;;;;1.45;1.05;;;24.40;82.30;;;20.39;100.00;100774.84;3602384;39;20263;-81
2021/08/06 09:32:55;;;;;;;0.85;0.85;;;24.60;82.10;;;20.56;100.00;100783.38;3604090;39;20552;-81
2021/08/06 09:35:25;;;;;;;0.73;0.73;;;24.70;81.60;;;20.74;100.00;100808.06;3590242;39;20267;-82
2021/08/06 09:37:53;;;;;;;0.65;0.65;;;25.60;75.70;;;20.60;100.00;100841.75;3594045;39;20485;-83
2021/08/06 09:40:23;;;;;;;0.73;0.70;;;25.60;74.40;;;20.11;100.00;100849.44;3597891;39;20521;-82
2021/08/06 09:42:55;;;;;;;1.63;0.80;;;25.40;70.40;;;20.11;100.00;100882.03;3599874;39;20401;-81
2021/08/06 09:45:25;;;;;;;0.80;0.80;;;26.00;69.20;;;20.67;100.00;100929.56;3589029;39;20555;-81
2021/08/06 09:47:58;;;;;;;1.63;1.20;;;25.70;69.10;;;21.86;100.00;100881.19;3597380;39;20263;-81
2021/08/06 09:50:38;;;;;;;1.13;0.90;;;26.10;71.00;;;20.96;100.00;99587.34;3596821;39;20614;-80
2021/08/06 09:53:06;;;;;;;1.17;1.00;;;26.00;67.20;;;20.71;100.00;99698.31;3588906;39;20263;-82
2021/08/06 09:55:36;;;;;;;1.17;1.00;;;25.80;66.40;;;20.60;100.00;99686.38;3597242;39;20259;-79
2021/08/06 09:58:08;;;;;;;1.15;1.05;;;25.90;64.60;;;20.89;100.00;99710.94;3597114;39;20247;-82
2021/08/06 10:00:40;;;;;;;0.80;0.80;;;26.60;65.70;;;21.35;100.00;99737.22;3599243;39;20576;-79
2021/08/06 10:03:25;;;;;;;1.00;0.80;;;25.70;63.00;;;21.16;100.00;99731.09;3596774;39;20259;-83
2021/08/06 10:06:08;;;;;;;1.50;0.80;;;26.20;61.30;;;21.67;100.00;99689.38;3594456;39;20330;-81
2021/08/06 10:08:36;;;;;;;0.68;0.60;;;26.10;59.70;;;21.05;100.00;99664.78;3585718;39;20777;-81
2021/08/06 10:11:03;;;;;;;0.77;0.77;;;26.20;59.60;;;20.88;100.00;99611.41;3600428;39;20554;-81
2021/08/06 10:13:31;;;;;;;2.25;1.58;;;26.40;59.80;;;22.27;100.00;99582.50;3598904;39;20340;-85
2021/08/06 10:15:58;;;;;;;1.00;0.85;;;26.40;60.40;;;22.36;100.00;99515.59;3594150;39;20665;-80
2021/08/06 10:18:28;;;;;;;2.42;0.88;;;26.70;60.90;;;22.45;100.00;99440.47;3584081;39;20250;-80
2021/08/06 10:20:55;;;;;;;0.68;0.60;;;27.20;58.40;;;22.41;100.00;99395.72;3585168;39;21108;-81